createdAt,value
2023-02-22T15:32:24.899Z,54.60
2023-02-22T15:34:33.422Z,24.73
2023-02-22T15:36:35.479Z,18.08
2023-02-22T15:38:38.873Z,26.05
2023-02-22T15:41:39.164Z,35.40
2023-02-22T15:43:41.136Z,28.85
2023-02-22T15:45:43.476Z,48.95
2023-02-22T15:47:45.137Z,39.83
2023-02-22T15:50:16.762Z,58.15
2023-02-22T15:52:28.403Z,33.38
2023-02-22T15:54:36.933Z,22.27
2023-02-22T15:56:38.470Z,20.00
2023-02-22T15:58:40.658Z,13.18
2023-02-22T16:00:44.479Z,11.88
2023-02-22T16:02:46.904Z,24.52
2023-02-22T16:04:59.073Z,11.90
2023-02-22T16:07:17.098Z,15.63
2023-02-22T16:09:29.597Z,37.80
2023-02-22T16:11:34.610Z,60.63
2023-02-22T16:13:36.405Z,24.55
2023-02-22T16:15:38.171Z,23.50
2023-02-22T16:17:55.868Z,23.83
2023-02-22T16:20:22.639Z,26.17
2023-02-22T16:22:28.269Z,19.40
2023-02-22T16:24:34.816Z,14.27
2023-02-22T16:26:36.401Z,19.77
2023-02-22T16:28:51.872Z,98.93
2023-02-22T16:30:59.808Z,44.83
2023-02-22T16:33:05.601Z,54.00
2023-02-22T16:35:07.222Z,69.18
2023-02-22T16:37:22.217Z,29.55
2023-02-22T16:39:27.204Z,27.90
2023-02-22T16:41:30.913Z,31.00
2023-02-22T16:43:33.467Z,21.08
2023-02-22T16:45:36.097Z,26.67
2023-02-22T16:47:38.228Z,18.08
2023-02-22T16:49:39.745Z,23.73
2023-02-22T16:51:48.628Z,18.58
2023-02-22T16:53:52.208Z,31.70
2023-02-22T16:56:00.284Z,43.03
2023-02-22T16:58:02.606Z,47.22
2023-02-22T17:00:08.002Z,41.75
2023-02-22T17:02:15.419Z,43.47
2023-02-22T17:04:20.197Z,37.22
2023-02-22T17:06:21.806Z,25.73
2023-02-22T17:08:23.965Z,21.27
2023-02-22T17:10:26.183Z,19.80
2023-02-22T17:12:30.252Z,19.77
2023-02-22T17:14:34.687Z,21.13
2023-02-22T17:16:36.321Z,24.27
2023-02-22T17:18:39.308Z,22.98
2023-02-22T17:20:40.925Z,24.30
2023-02-22T17:22:43.097Z,120.53
2023-02-22T17:24:45.010Z,76.15
2023-02-22T17:26:46.649Z,66.45
2023-02-22T17:28:48.142Z,65.65
2023-02-22T17:30:51.556Z,55.60
2023-02-22T17:32:53.190Z,54.20
2023-02-22T17:34:54.707Z,52.22
2023-02-22T17:36:56.236Z,64.65
2023-02-22T17:38:59.038Z,51.15
2023-02-22T17:41:01.573Z,41.72
2023-02-22T17:43:03.567Z,50.22
2023-02-22T17:45:05.420Z,39.70
2023-02-22T17:47:06.974Z,44.65
2023-02-22T17:49:08.529Z,41.88
2023-02-22T17:51:11.952Z,39.25
2023-02-22T17:53:14.115Z,29.33
2023-02-22T17:55:17.003Z,31.10
2023-02-22T17:57:18.670Z,28.67
2023-02-22T17:59:20.240Z,23.58
2023-02-22T18:01:25.347Z,33.08
2023-02-22T18:03:27.205Z,34.40
2023-02-22T18:05:29.968Z,24.63
2023-02-22T18:07:31.999Z,20.95
2023-02-22T18:09:34.231Z,22.23
2023-02-22T18:11:37.445Z,25.08
2023-02-22T18:13:38.900Z,27.48
2023-02-22T18:15:40.558Z,29.75
2023-02-22T18:17:42.038Z,26.38
2023-02-22T18:19:43.668Z,24.10
2023-02-22T18:21:46.117Z,24.65
2023-02-22T18:23:47.750Z,21.95
2023-02-22T18:26:07.560Z,17.38
2023-02-22T18:28:10.432Z,19.15
2023-02-22T18:30:12.676Z,19.50
2023-02-22T18:32:14.380Z,17.83
2023-02-22T18:34:17.578Z,20.10
2023-02-22T18:36:22.905Z,19.77
2023-02-22T18:38:25.428Z,20.42
2023-02-22T18:40:26.932Z,23.38
2023-02-22T18:42:28.803Z,34.28
2023-02-22T18:44:31.842Z,30.83
2023-02-22T18:46:33.374Z,31.60
2023-02-22T18:48:35.489Z,28.90
2023-02-22T18:50:37.866Z,24.88
2023-02-22T18:52:46.047Z,22.50
2023-02-22T18:54:49.673Z,31.70
2023-02-22T18:56:51.171Z,40.08
2023-02-22T18:58:54.066Z,46.70
2023-02-22T19:00:55.609Z,41.58
2023-02-22T19:02:57.776Z,45.67
2023-02-22T19:05:00.470Z,38.28
2023-02-22T19:07:02.037Z,39.67
2023-02-22T19:09:08.469Z,59.55
2023-02-22T19:11:17.755Z,42.13
2023-02-22T19:13:21.099Z,44.15
2023-02-22T19:17:24.080Z,73.47
2023-02-22T19:19:26.709Z,51.45
2023-02-22T19:21:30.820Z,59.45
2023-02-22T19:23:34.533Z,49.17
2023-02-22T19:25:41.301Z,56.80
2023-02-22T19:27:44.424Z,44.50
2023-02-22T19:29:47.120Z,50.00
2023-02-22T19:31:51.662Z,44.60
2023-02-22T19:33:53.438Z,45.38
2023-02-22T19:35:59.788Z,32.00
2023-02-22T19:38:01.726Z,34.00
2023-02-22T19:40:08.822Z,26.10
2023-02-22T19:42:10.446Z,31.42
2023-02-22T19:44:12.620Z,26.73
2023-02-22T19:46:17.835Z,30.10
2023-02-22T19:48:20.774Z,41.05
2023-02-22T19:50:22.568Z,44.92
2023-02-22T19:52:24.126Z,23.05
2023-02-22T19:54:25.725Z,21.40
2023-02-22T19:56:27.648Z,21.08
2023-02-22T19:58:31.948Z,25.23
2023-02-22T20:00:36.909Z,34.78
2023-02-22T20:02:39.651Z,39.25
2023-02-22T20:04:41.400Z,40.00
2023-02-22T20:06:44.029Z,33.22
2023-02-22T20:08:45.771Z,31.30
2023-02-22T20:10:47.292Z,22.60
2023-02-22T20:12:48.861Z,29.98
2023-02-22T20:14:50.325Z,23.73
2023-02-22T20:16:53.411Z,27.33
2023-02-22T20:18:56.074Z,56.45
2023-02-22T20:20:57.575Z,39.80
2023-02-22T20:22:59.126Z,29.98
2023-02-22T20:25:00.627Z,26.67
2023-02-22T20:27:02.156Z,19.45
2023-02-22T20:29:05.567Z,20.10
2023-02-22T20:31:13.737Z,22.00
2023-02-22T20:33:15.493Z,20.45
2023-02-22T20:35:17.201Z,26.88
2023-02-22T20:37:18.857Z,28.73
2023-02-22T20:39:20.464Z,29.65
2023-02-22T20:41:25.882Z,27.73
2023-02-22T20:43:27.446Z,29.67
2023-02-22T20:45:29.058Z,25.10
2023-02-22T20:47:30.655Z,27.40
2023-02-22T20:49:32.414Z,26.45
2023-02-22T20:51:35.397Z,25.98
2023-02-22T20:53:41.485Z,50.13
2023-02-22T20:55:50.860Z,50.33
2023-02-22T20:57:52.333Z,36.03
2023-02-22T20:59:53.885Z,56.70
2023-02-22T21:01:55.755Z,38.78
2023-02-22T21:04:06.473Z,37.08
2023-02-22T21:06:09.776Z,31.13
2023-02-22T21:08:12.582Z,32.03
2023-02-22T21:10:15.880Z,33.30
2023-02-22T21:12:17.414Z,33.42
2023-02-22T21:14:19.816Z,37.08
2023-02-22T21:16:25.051Z,39.30
2023-02-22T21:18:26.878Z,47.05
2023-02-22T21:20:29.169Z,45.33
2023-02-22T21:22:30.883Z,40.55
2023-02-22T21:24:33.029Z,40.45
2023-02-22T21:26:35.128Z,36.70
2023-02-22T21:28:53.220Z,40.05
2023-02-22T21:30:54.876Z,39.67
2023-02-22T21:32:56.532Z,43.17
2023-02-22T21:34:58.098Z,41.60
2023-02-22T21:36:59.608Z,45.78
2023-02-22T21:39:09.307Z,48.17
2023-02-22T21:43:13.132Z,49.10
2023-02-22T21:45:20.191Z,43.67
2023-02-22T21:47:24.600Z,45.38
2023-02-22T21:49:26.146Z,40.92
2023-02-22T21:51:33.322Z,41.83
2023-02-22T21:53:35.112Z,44.05
2023-02-22T21:55:38.145Z,42.75
2023-02-22T21:57:40.753Z,42.45
2023-02-22T21:59:42.336Z,41.28
2023-02-22T22:01:50.193Z,41.28
2023-02-22T22:03:51.811Z,34.03
2023-02-22T22:05:53.345Z,41.40
2023-02-22T22:07:54.905Z,39.58
2023-02-22T22:09:56.887Z,38.38
2023-02-22T22:12:01.402Z,36.55
2023-02-22T22:14:03.681Z,39.15
2023-02-22T22:16:08.188Z,38.28
2023-02-22T22:18:09.868Z,45.35
2023-02-22T22:20:14.813Z,48.30
2023-02-22T22:22:16.374Z,44.63
2023-02-22T22:24:20.560Z,43.88
2023-02-22T22:26:24.689Z,46.45
2023-02-22T22:28:26.998Z,38.08
2023-02-22T22:30:29.156Z,36.88
2023-02-22T22:32:32.555Z,39.25
2023-02-22T22:34:34.973Z,38.08
2023-02-22T22:36:37.750Z,34.78
2023-02-22T22:38:39.331Z,42.85
2023-02-22T22:40:40.923Z,54.47
2023-02-22T22:42:43.468Z,42.35
2023-02-22T22:44:50.252Z,44.75
2023-02-22T22:46:54.781Z,46.78
2023-02-22T22:48:56.371Z,41.60
2023-02-22T22:51:02.637Z,42.85
2023-02-22T22:53:04.509Z,39.17
2023-02-22T22:55:11.986Z,38.33
2023-02-22T22:57:13.676Z,42.10
2023-02-22T22:59:15.307Z,41.78
2023-02-22T23:01:19.733Z,43.55
2023-02-22T23:03:21.667Z,53.85
2023-02-22T23:05:28.313Z,46.38
2023-02-22T23:07:29.806Z,40.22
2023-02-22T23:09:34.813Z,37.35
2023-02-22T23:11:36.406Z,35.92
2023-02-22T23:13:40.679Z,31.35
2023-02-22T23:15:43.378Z,34.03
2023-02-22T23:17:45.656Z,32.00
2023-02-22T23:19:47.185Z,28.35
2023-02-22T23:21:50.253Z,26.58
2023-02-22T23:23:58.190Z,23.50
2023-02-22T23:26:11.400Z,23.35
2023-02-22T23:28:14.788Z,20.08
2023-02-22T23:30:18.688Z,20.10
2023-02-22T23:32:20.308Z,18.73
2023-02-22T23:34:23.220Z,19.35
2023-02-22T23:36:26.064Z,16.33
2023-02-22T23:38:28.168Z,15.13
2023-02-22T23:40:29.715Z,16.38
2023-02-22T23:42:31.238Z,16.42
2023-02-22T23:44:32.994Z,16.10
2023-02-22T23:46:36.535Z,15.48
2023-02-22T23:48:40.206Z,16.60
2023-02-22T23:50:41.706Z,17.58
2023-02-22T23:52:43.666Z,17.35
2023-02-22T23:54:46.856Z,17.48
2023-02-22T23:56:58.368Z,18.83
2023-02-22T23:59:00.285Z,16.63
